Time;durP1;ratioP1;P1;durP2;ratioP2;P2;SDS_P1;SDS_P2;PMS_P1;PMS_P2;Temp;Humidity;BMP_temperature;BMP_pressure;BME280_temperature;BME280_humidity;BME280_pressure;Samples;Min_cycle;Max_cycle;Signal;HPM_P1;HPM_P2
2023/07/31 00:00:50;;;;;;;6.35;1.70;;;18.80;99.90;;;;;;4910059;28;20589;-83
2023/07/31 00:03:15;;;;;;;5.20;1.80;;;18.70;99.90;;;;;;4934608;28;20635;-85
2023/07/31 00:05:41;;;;;;;5.18;1.83;;;18.70;99.90;;;;;;4916179;28;20035;-84
2023/07/31 00:08:07;;;;;;;8.03;1.67;;;18.70;99.90;;;;;;4936200;28;20405;-84
2023/07/31 00:10:33;;;;;;;6.32;2.00;;;18.70;99.90;;;;;;4931572;28;20031;-85
2023/07/31 00:12:59;;;;;;;5.10;1.63;;;18.70;99.90;;;;;;4914151;28;20117;-84
2023/07/31 00:15:25;;;;;;;4.37;1.90;;;18.80;99.90;;;;;;4926895;28;20138;-83
2023/07/31 00:17:50;;;;;;;3.63;1.70;;;18.80;99.90;;;;;;4924604;28;20087;-84
2023/07/31 00:20:16;;;;;;;4.83;2.00;;;18.70;99.90;;;;;;4923328;28;20035;-82
2023/07/31 00:22:42;;;;;;;6.20;1.88;;;18.80;99.90;;;;;;4947550;28;20031;-83
2023/07/31 00:25:09;;;;;;;5.83;2.20;;;18.70;99.90;;;;;;4933225;28;20058;-83
2023/07/31 00:27:35;;;;;;;8.27;1.80;;;18.80;99.90;;;;;;4935332;28;20858;-84
2023/07/31 00:30:00;;;;;;;4.68;1.77;;;18.80;99.90;;;;;;4926846;28;20035;-83
2023/07/31 00:32:26;;;;;;;5.37;1.90;;;18.80;99.90;;;;;;4902921;28;20245;-82
2023/07/31 00:34:52;;;;;;;6.90;2.50;;;18.80;99.90;;;;;;4944946;28;20023;-84
2023/07/31 00:37:17;;;;;;;6.03;2.13;;;18.70;99.90;;;;;;4914587;28;20035;-84
2023/07/31 00:39:43;;;;;;;5.50;1.80;;;18.80;99.90;;;;;;4937187;28;20462;-84
2023/07/31 00:42:09;;;;;;;6.20;2.00;;;18.80;99.90;;;;;;4928743;28;20031;-84
2023/07/31 00:44:35;;;;;;;3.85;1.73;;;18.80;99.90;;;;;;4940398;28;20038;-84
2023/07/31 00:47:01;;;;;;;3.47;1.60;;;18.80;99.90;;;;;;4929117;28;20037;-83
2023/07/31 00:49:27;;;;;;;5.47;1.88;;;18.80;99.90;;;;;;4917936;28;20055;-83
2023/07/31 00:51:54;;;;;;;3.83;1.60;;;18.80;99.90;;;;;;4948008;28;20442;-83
2023/07/31 00:54:19;;;;;;;6.38;1.80;;;18.80;99.90;;;;;;4917795;28;20417;-83
2023/07/31 00:56:48;;;;;;;4.93;1.80;;;18.80;99.90;;;;;;4931357;28;20030;-84
2023/07/31 00:59:14;;;;;;;4.15;1.90;;;18.80;99.90;;;;;;4940950;28;20080;-86
2023/07/31 01:01:40;;;;;;;3.40;1.70;;;18.80;99.90;;;;;;4938274;28;20261;-86
2023/07/31 01:04:06;;;;;;;4.40;1.90;;;18.90;99.90;;;;;;4922236;28;20047;-85
2023/07/31 01:06:32;;;;;;;4.72;1.67;;;18.90;99.90;;;;;;4935386;28;20292;-85
2023/07/31 01:09:14;;;;;;;4.05;1.70;;;18.90;99.90;;;;;;4918889;28;20741;-86
2023/07/31 01:11:51;;;;;;;5.18;2.00;;;18.90;99.90;;;;;;4935763;28;20046;-85
2023/07/31 01:14:16;;;;;;;4.67;1.80;;;18.90;99.90;;;;;;4930321;28;20039;-84
2023/07/31 01:16:42;;;;;;;5.43;1.80;;;18.90;99.90;;;;;;4943960;28;20031;-86
2023/07/31 01:19:10;;;;;;;4.50;1.70;;;18.90;99.90;;;;;;4905560;28;20123;-83
2023/07/31 01:21:53;;;;;;;3.67;1.70;;;18.90;99.90;;;;;;4928840;28;20110;-86
2023/07/31 01:24:24;;;;;;;4.13;1.70;;;18.90;99.90;;;;;;4908462;28;20038;-84
2023/07/31 01:27:04;;;;;;;5.35;1.70;;;19.00;99.90;;;;;;4934612;28;20051;-82
2023/07/31 01:29:55;;;;;;;3.95;1.70;;;19.00;99.90;;;;;;4911406;28;20369;-85
2023/07/31 01:32:22;;;;;;;2.93;1.47;;;19.00;99.90;;;;;;4932027;28;20031;-85
2023/07/31 01:34:49;;;;;;;4.07;1.73;;;19.00;99.90;;;;;;4918109;28;20038;-84
2023/07/31 01:37:14;;;;;;;5.05;1.63;;;19.00;99.90;;;;;;4938889;28;20078;-85
2023/07/31 01:39:40;;;;;;;4.00;1.70;;;19.00;99.90;;;;;;4928082;28;20281;-84
2023/07/31 01:42:07;;;;;;;4.47;1.65;;;19.00;99.90;;;;;;4923609;28;20023;-83
2023/07/31 01:44:33;;;;;;;4.40;1.90;;;19.00;99.90;;;;;;4927988;28;20027;-84
2023/07/31 01:47:00;;;;;;;4.77;1.77;;;19.00;99.90;;;;;;4931639;28;20566;-83
2023/07/31 01:49:26;;;;;;;5.38;1.83;;;19.00;99.90;;;;;;4917400;28;20168;-84
2023/07/31 01:51:52;;;;;;;5.28;1.90;;;;;;;;;;4943698;28;21012;-85
2023/07/31 01:54:17;;;;;;;3.60;1.80;;;19.00;99.90;;;;;;4919106;28;20459;-85
2023/07/31 01:56:43;;;;;;;5.10;1.73;;;19.00;99.90;;;;;;4937971;28;20024;-86
2023/07/31 01:59:09;;;;;;;6.43;2.42;;;19.10;99.90;;;;;;4938895;28;20071;-85
2023/07/31 02:01:35;;;;;;;4.70;1.90;;;19.10;99.90;;;;;;4917202;28;20238;-84
2023/07/31 02:04:01;;;;;;;3.13;1.73;;;19.10;99.90;;;;;;4938450;28;20529;-81
2023/07/31 02:06:27;;;;;;;6.53;1.83;;;19.20;99.90;;;;;;4898098;28;20341;-83
2023/07/31 02:08:52;;;;;;;4.90;1.80;;;19.10;99.90;;;;;;4925013;29;20178;-84
2023/07/31 02:11:18;;;;;;;5.45;1.80;;;19.20;99.90;;;;;;4927785;28;20494;-83
2023/07/31 02:13:44;;;;;;;5.33;1.90;;;19.20;99.90;;;;;;4947813;28;20036;-84
2023/07/31 02:16:10;;;;;;;5.57;1.90;;;19.20;99.90;;;;;;4930582;28;20035;-84
2023/07/31 02:18:36;;;;;;;4.53;1.80;;;19.20;99.90;;;;;;4926352;28;20251;-86
2023/07/31 02:21:01;;;;;;;4.82;1.80;;;19.20;99.90;;;;;;4923191;28;20035;-87
2023/07/31 02:23:27;;;;;;;5.35;1.90;;;19.30;99.90;;;;;;4935822;28;20039;-84
2023/07/31 02:25:53;;;;;;;3.90;1.67;;;19.30;99.90;;;;;;4901491;28;20051;-84
2023/07/31 02:28:18;;;;;;;4.28;1.58;;;19.30;99.90;;;;;;4941880;28;20053;-85
2023/07/31 02:30:46;;;;;;;6.67;2.43;;;19.30;99.90;;;;;;4940782;28;20121;-82
2023/07/31 02:33:11;;;;;;;5.35;2.25;;;19.30;99.90;;;;;;4915536;28;20035;-83
2023/07/31 02:35:37;;;;;;;6.70;2.10;;;19.30;99.90;;;;;;4940163;28;20054;-82
2023/07/31 02:38:03;;;;;;;5.25;2.03;;;19.30;99.90;;;;;;4919285;28;20590;-83
2023/07/31 02:40:28;;;;;;;4.30;2.00;;;19.30;99.90;;;;;;4936637;28;20423;-84
2023/07/31 02:42:54;;;;;;;4.35;1.70;;;19.30;99.90;;;;;;4914025;28;20031;-85
2023/07/31 02:45:21;;;;;;;4.50;2.20;;;19.30;99.90;;;;;;4917216;28;20043;-84
2023/07/31 02:47:47;;;;;;;5.45;1.90;;;19.30;99.90;;;;;;4915393;28;20386;-83
2023/07/31 02:50:12;;;;;;;3.63;1.88;;;19.30;99.90;;;;;;4924930;28;20053;-82
2023/07/31 02:52:38;;;;;;;5.03;2.00;;;19.30;99.90;;;;;;4919949;28;20033;-84
2023/07/31 02:55:04;;;;;;;4.55;1.75;;;19.40;99.90;;;;;;4922619;28;20126;-84
2023/07/31 02:57:30;;;;;;;4.90;1.97;;;19.40;99.90;;;;;;4928132;28;20762;-81
2023/07/31 02:59:55;;;;;;;5.07;2.03;;;19.30;99.90;;;;;;4942579;28;20046;-83
2023/07/31 03:02:21;;;;;;;4.93;2.00;;;19.40;99.90;;;;;;4913137;28;20410;-82
2023/07/31 03:04:47;;;;;;;3.88;1.92;;;19.30;99.90;;;;;;4932049;28;20074;-79
2023/07/31 03:07:13;;;;;;;5.37;2.50;;;19.40;99.90;;;;;;4916518;28;20131;-82
2023/07/31 03:09:38;;;;;;;4.28;1.83;;;19.40;99.90;;;;;;4939883;28;20035;-82
2023/07/31 03:12:04;;;;;;;4.10;2.00;;;19.40;99.90;;;;;;4934548;28;20035;-82
2023/07/31 03:14:30;;;;;;;4.65;2.00;;;19.40;99.90;;;;;;4938261;28;20023;-82
2023/07/31 03:16:56;;;;;;;4.82;2.05;;;19.40;99.90;;;;;;4943274;28;20039;-82
2023/07/31 03:19:22;;;;;;;5.50;2.37;;;19.40;99.90;;;;;;4918191;28;20050;-84
2023/07/31 03:21:47;;;;;;;4.13;2.10;;;19.40;99.90;;;;;;4923416;28;20497;-82
2023/07/31 03:24:13;;;;;;;6.53;2.20;;;19.40;99.90;;;;;;4937078;28;20038;-83
2023/07/31 03:26:41;;;;;;;4.40;1.92;;;19.40;99.90;;;;;;4942756;28;20035;-81
2023/07/31 03:29:07;;;;;;;3.85;2.13;;;19.40;99.90;;;;;;4927087;28;20020;-83
2023/07/31 03:31:33;;;;;;;4.78;2.13;;;19.40;99.90;;;;;;4935730;28;20035;-85
2023/07/31 03:33:59;;;;;;;5.30;2.10;;;19.40;99.90;;;;;;4928436;28;20465;-83
2023/07/31 03:36:24;;;;;;;4.88;2.30;;;19.40;99.90;;;;;;4929797;28;20104;-83
2023/07/31 03:38:51;;;;;;;4.10;2.33;;;19.40;99.90;;;;;;4921919;28;20043;-82
2023/07/31 03:41:17;;;;;;;4.10;2.05;;;19.40;99.90;;;;;;4934973;28;20047;-83
2023/07/31 03:43:43;;;;;;;4.50;2.40;;;19.40;99.90;;;;;;4930553;28;20024;-84
2023/07/31 03:46:08;;;;;;;4.73;2.17;;;19.40;99.90;;;;;;4922360;28;20026;-83
2023/07/31 03:48:34;;;;;;;3.85;2.00;;;19.40;99.90;;;;;;4918135;28;20557;-84
2023/07/31 03:51:00;;;;;;;4.17;2.20;;;19.40;99.90;;;;;;4928087;28;20042;-83
2023/07/31 03:53:26;;;;;;;3.50;2.20;;;19.30;99.90;;;;;;4919911;28;20039;-83
2023/07/31 03:55:51;;;;;;;3.77;1.80;;;19.30;99.90;;;;;;4938478;28;20085;-84
2023/07/31 03:58:17;;;;;;;3.38;1.90;;;19.30;99.90;;;;;;4929637;28;20035;-82
2023/07/31 04:00:43;;;;;;;3.50;1.80;;;19.30;99.90;;;;;;4923083;28;20031;-82
2023/07/31 04:03:08;;;;;;;3.70;1.83;;;19.20;99.90;;;;;;4938154;28;20398;-84
2023/07/31 04:05:38;;;;;;;3.73;1.60;;;19.20;99.90;;;;;;4931122;28;20541;-84
2023/07/31 04:08:04;;;;;;;3.80;1.63;;;19.20;99.90;;;;;;4912939;28;20113;-82
2023/07/31 04:10:33;;;;;;;3.00;1.60;;;19.20;99.90;;;;;;4929301;28;20586;-83
2023/07/31 04:12:59;;;;;;;3.10;1.65;;;19.10;99.90;;;;;;4939505;28;20019;-83
2023/07/31 04:15:24;;;;;;;4.60;2.17;;;19.10;99.90;;;;;;4931091;28;20161;-83
2023/07/31 04:17:50;;;;;;;3.33;1.75;;;19.10;99.90;;;;;;4941840;28;20389;-83
2023/07/31 04:20:16;;;;;;;3.30;1.70;;;19.10;99.90;;;;;;4927725;28;20343;-82
2023/07/31 04:22:41;;;;;;;3.15;1.60;;;19.10;99.90;;;;;;4918190;28;20035;-82
2023/07/31 04:25:07;;;;;;;3.63;1.57;;;19.10;99.90;;;;;;4904653;28;20034;-82
2023/07/31 04:27:33;;;;;;;3.25;1.92;;;19.00;99.90;;;;;;4943732;28;20437;-82
2023/07/31 04:29:59;;;;;;;4.18;1.88;;;19.00;99.90;;;;;;4938402;28;20077;-82
2023/07/31 04:32:25;;;;;;;3.70;1.90;;;19.00;99.90;;;;;;4930244;28;20335;-82
2023/07/31 04:34:50;;;;;;;3.30;1.90;;;18.90;99.90;;;;;;4941748;28;20035;-81
2023/07/31 04:37:16;;;;;;;3.10;1.60;;;16.20;99.90;;;;;;4905187;28;20660;-83
2023/07/31 04:39:42;;;;;;;2.95;1.77;;;18.90;99.90;;;;;;4925626;28;20046;-84
2023/07/31 04:42:08;;;;;;;3.50;1.90;;;18.90;99.90;;;;;;4925956;28;20075;-82
2023/07/31 04:44:35;;;;;;;3.25;1.85;;;18.90;99.90;;;;;;4925472;28;20083;-82
2023/07/31 04:47:01;;;;;;;3.60;1.88;;;18.90;99.90;;;;;;4907343;28;20418;-83
2023/07/31 04:49:27;;;;;;;5.32;2.00;;;18.80;99.90;;;;;;4942539;28;20245;-82
2023/07/31 04:51:53;;;;;;;3.07;1.80;;;18.80;99.90;;;;;;4917016;28;20027;-82
2023/07/31 04:54:19;;;;;;;3.08;1.75;;;18.80;99.90;;;;;;4932361;28;20099;-82
2023/07/31 04:56:44;;;;;;;4.00;1.57;;;18.90;99.90;;;;;;4912265;28;20437;-81
2023/07/31 04:59:10;;;;;;;3.17;1.90;;;18.80;99.90;;;;;;4924444;28;20023;-84
2023/07/31 05:01:36;;;;;;;4.17;2.10;;;18.80;99.90;;;;;;4930769;28;20057;-81
2023/07/31 05:04:02;;;;;;;3.40;1.70;;;18.80;99.90;;;;;;4925788;28;20305;-83
2023/07/31 05:06:27;;;;;;;3.20;1.90;;;18.80;99.90;;;;;;4942364;28;20050;-82
2023/07/31 05:08:53;;;;;;;4.05;2.00;;;18.80;99.90;;;;;;4919624;28;20062;-83
2023/07/31 05:11:19;;;;;;;3.97;2.00;;;18.80;99.90;;;;;;4920341;28;20086;-83
2023/07/31 05:13:44;;;;;;;3.58;1.75;;;18.70;99.90;;;;;;4925479;28;20106;-82
2023/07/31 05:16:10;;;;;;;3.30;2.17;;;18.70;99.90;;;;;;4937117;28;20039;-83
2023/07/31 05:18:36;;;;;;;3.22;2.05;;;18.70;99.90;;;;;;4931154;28;20473;-82
2023/07/31 05:21:02;;;;;;;4.88;2.20;;;18.70;99.90;;;;;;4920745;28;20035;-83
2023/07/31 05:23:27;;;;;;;4.23;2.20;;;18.70;99.90;;;;;;4901752;28;20697;-84
2023/07/31 05:25:53;;;;;;;4.47;2.00;;;18.70;99.90;;;;;;4918619;28;20421;-82
2023/07/31 05:28:22;;;;;;;4.67;2.03;;;18.70;99.90;;;;;;4924409;28;20218;-82
2023/07/31 05:30:47;;;;;;;4.85;2.20;;;18.70;99.90;;;;;;4942120;28;20043;-81
2023/07/31 05:33:13;;;;;;;3.80;2.10;;;18.70;99.90;;;;;;4908905;28;20555;-84
2023/07/31 05:35:39;;;;;;;3.38;1.90;;;18.70;99.90;;;;;;4944067;28;20047;-82
2023/07/31 05:38:04;;;;;;;3.47;2.00;;;18.70;99.90;;;;;;4914096;28;20043;-83
2023/07/31 05:40:33;;;;;;;3.72;2.08;;;18.70;99.90;;;;;;4937201;28;20036;-83
2023/07/31 05:42:58;;;;;;;3.67;1.92;;;18.70;99.90;;;;;;4914228;28;20483;-83
2023/07/31 05:45:25;;;;;;;3.43;1.70;;;18.70;99.90;;;;;;4928773;28;20039;-81
2023/07/31 05:47:51;;;;;;;3.75;1.90;;;18.70;99.90;;;;;;4938176;28;20026;-83
2023/07/31 05:50:16;;;;;;;3.38;1.98;;;18.70;99.90;;;;;;4932211;28;20233;-81
2023/07/31 05:52:42;;;;;;;3.50;1.80;;;18.60;99.90;;;;;;4912910;28;20082;-84
2023/07/31 05:55:08;;;;;;;3.23;1.93;;;18.60;99.90;;;;;;4926580;28;20070;-84
2023/07/31 05:57:34;;;;;;;4.67;2.30;;;18.70;99.90;;;;;;4932221;28;20312;-81
2023/07/31 05:59:59;;;;;;;4.18;2.20;;;18.60;99.90;;;;;;4916253;28;20035;-82
2023/07/31 06:02:25;;;;;;;4.33;2.33;;;18.60;99.90;;;;;;4937142;28;20550;-83
2023/07/31 06:04:51;;;;;;;3.03;2.10;;;18.40;99.90;;;;;;4930050;28;20049;-82
2023/07/31 06:07:17;;;;;;;4.33;2.27;;;18.60;99.90;;;;;;4937409;28;20265;-83
2023/07/31 06:09:42;;;;;;;3.95;2.30;;;18.60;99.90;;;;;;4920690;28;20027;-82
2023/07/31 06:12:08;;;;;;;3.83;2.10;;;18.60;99.90;;;;;;4924867;28;20055;-83
2023/07/31 06:14:34;;;;;;;3.85;2.10;;;18.60;99.90;;;;;;4922245;28;20110;-83
2023/07/31 06:17:00;;;;;;;4.60;2.00;;;18.60;99.90;;;;;;4939083;28;20046;-83
2023/07/31 06:19:25;;;;;;;4.03;1.97;;;18.70;99.90;;;;;;4930532;28;20524;-84
2023/07/31 06:21:51;;;;;;;3.50;1.85;;;18.70;99.90;;;;;;4909412;28;20035;-82
2023/07/31 06:24:20;;;;;;;3.80;2.30;;;18.70;99.90;;;;;;4918044;28;20057;-83
2023/07/31 06:26:45;;;;;;;4.65;2.25;;;18.70;99.90;;;;;;4929077;28;20114;-82
2023/07/31 06:29:11;;;;;;;3.83;2.00;;;18.70;99.90;;;;;;4932827;28;20636;-84
2023/07/31 06:31:41;;;;;;;3.60;2.00;;;18.70;99.90;;;;;;4905160;28;20290;-83
2023/07/31 06:34:08;;;;;;;3.97;2.10;;;15.90;99.90;;;;;;4937096;28;20652;-85
2023/07/31 06:36:33;;;;;;;4.22;2.30;;;18.70;99.90;;;;;;4927139;28;20019;-83
2023/07/31 06:38:59;;;;;;;5.23;2.00;;;18.70;99.90;;;;;;4903421;28;20588;-82
2023/07/31 06:41:25;;;;;;;3.53;2.23;;;18.70;99.90;;;;;;4908722;28;20035;-82
2023/07/31 06:43:50;;;;;;;4.90;2.13;;;18.80;99.90;;;;;;4934090;28;20552;-83
2023/07/31 06:46:16;;;;;;;4.30;2.20;;;18.80;99.90;;;;;;4921005;28;20873;-83
2023/07/31 06:48:42;;;;;;;4.63;1.90;;;18.80;99.90;;;;;;4952032;28;20622;-82
2023/07/31 06:51:08;;;;;;;4.03;1.70;;;18.80;99.90;;;;;;4912377;28;20592;-82
2023/07/31 06:53:33;;;;;;;5.60;2.35;;;18.80;99.90;;;;;;4939677;28;20029;-82
2023/07/31 06:55:59;;;;;;;4.30;2.53;;;18.90;99.90;;;;;;4921436;28;20058;-82
2023/07/31 06:58:25;;;;;;;4.30;2.20;;;18.90;99.90;;;;;;4920769;28;20039;-82
2023/07/31 07:00:50;;;;;;;4.53;2.10;;;19.10;99.90;;;;;;4920798;28;20424;-84
2023/07/31 07:03:18;;;;;;;4.40;2.10;;;19.00;99.90;;;;;;4916210;28;20054;-83
2023/07/31 07:05:44;;;;;;;4.30;1.98;;;19.00;99.90;;;;;;4918149;28;20114;-83
2023/07/31 07:08:09;;;;;;;5.33;2.10;;;19.10;99.90;;;;;;4924818;28;20121;-82
2023/07/31 07:10:35;;;;;;;3.75;1.75;;;19.10;99.90;;;;;;4915760;28;20040;-83
2023/07/31 07:13:01;;;;;;;3.97;1.90;;;19.20;99.90;;;;;;4905216;28;20038;-83
2023/07/31 07:15:27;;;;;;;3.22;1.75;;;19.20;99.90;;;;;;4934294;28;20037;-82
2023/07/31 07:17:52;;;;;;;3.10;1.77;;;19.30;99.90;;;;;;4918156;28;20118;-84
2023/07/31 07:20:19;;;;;;;4.10;2.15;;;19.30;99.90;;;;;;4927351;28;20086;-85
2023/07/31 07:22:45;;;;;;;2.90;1.83;;;19.30;99.90;;;;;;4925820;28;20110;-84
2023/07/31 07:25:11;;;;;;;4.60;1.90;;;19.40;99.90;;;;;;4930966;28;20054;-81
2023/07/31 07:27:37;;;;;;;3.90;1.80;;;19.40;99.90;;;;;;4923183;28;20107;-84
2023/07/31 07:30:03;;;;;;;5.27;2.03;;;20.10;99.90;;;;;;4917705;28;20304;-84
2023/07/31 07:32:29;;;;;;;4.97;2.05;;;19.50;99.90;;;;;;4921966;28;20031;-83
2023/07/31 07:34:56;;;;;;;4.90;1.83;;;19.50;99.90;;;;;;4933327;28;20031;-83
2023/07/31 07:37:22;;;;;;;3.73;1.97;;;19.50;99.90;;;;;;4929223;28;20072;-83
2023/07/31 07:39:47;;;;;;;4.30;2.05;;;19.50;99.90;;;;;;4910187;28;20174;-86
2023/07/31 07:42:13;;;;;;;2.50;1.60;;;19.60;99.90;;;;;;4912407;28;20295;-82
2023/07/31 07:44:39;;;;;;;4.05;2.00;;;19.60;99.90;;;;;;4923123;28;20041;-83
2023/07/31 07:47:08;;;;;;;3.45;2.00;;;19.50;99.90;;;;;;4910745;28;20662;-82
2023/07/31 07:49:35;;;;;;;2.93;1.80;;;19.60;99.90;;;;;;4944803;28;20025;-83
2023/07/31 07:52:02;;;;;;;3.92;1.85;;;19.60;99.90;;;;;;4934046;28;20093;-82
2023/07/31 07:54:27;;;;;;;3.83;2.10;;;19.60;99.90;;;;;;4929477;28;20019;-84
2023/07/31 07:56:53;;;;;;;3.97;1.98;;;19.60;99.90;;;;;;4914425;28;20563;-83
2023/07/31 07:59:19;;;;;;;3.03;1.70;;;19.60;99.90;;;;;;4915444;28;20038;-85
2023/07/31 08:01:45;;;;;;;4.15;1.80;;;19.60;99.90;;;;;;4927124;28;20035;-84
2023/07/31 08:04:10;;;;;;;3.73;1.80;;;19.60;99.90;;;;;;4921043;28;20075;-82
2023/07/31 08:06:36;;;;;;;3.92;1.90;;;19.60;99.90;;;;;;4933839;28;20421;-85
2023/07/31 08:09:05;;;;;;;3.07;1.80;;;19.60;99.90;;;;;;4938676;28;20456;-85
2023/07/31 08:11:32;;;;;;;3.38;1.67;;;19.60;99.90;;;;;;4895479;28;20031;-82
2023/07/31 08:13:58;;;;;;;3.50;2.00;;;19.60;99.90;;;;;;4923578;28;20035;-83
2023/07/31 08:16:24;;;;;;;3.30;1.70;;;19.70;99.90;;;;;;4900028;28;20046;-83
2023/07/31 08:18:49;;;;;;;3.80;1.90;;;19.70;99.90;;;;;;4932252;28;20039;-83
2023/07/31 08:21:15;;;;;;;4.47;1.92;;;19.80;99.90;;;;;;4938560;28;20037;-85
2023/07/31 08:23:41;;;;;;;3.83;1.73;;;19.90;99.90;;;;;;4942911;28;20066;-85
2023/07/31 08:26:07;;;;;;;5.60;2.05;;;19.90;99.90;;;;;;4930459;28;20027;-84
2023/07/31 08:28:32;;;;;;;4.83;1.93;;;20.10;99.90;;;;;;4933810;28;20122;-84
2023/07/31 08:30:58;;;;;;;3.92;1.80;;;20.20;99.90;;;;;;4928599;28;20074;-82
2023/07/31 08:33:24;;;;;;;2.60;1.50;;;20.20;99.90;;;;;;4905990;28;20045;-85
2023/07/31 08:35:50;;;;;;;2.15;1.60;;;20.20;99.90;;;;;;4937307;28;20397;-85
2023/07/31 08:38:15;;;;;;;3.53;1.60;;;20.40;99.90;;;;;;4921481;28;20102;-83
2023/07/31 08:40:41;;;;;;;5.53;2.05;;;20.40;99.90;;;;;;4935487;28;20184;-82
2023/07/31 08:43:08;;;;;;;3.33;1.70;;;20.50;99.90;;;;;;4904994;28;20063;-82
2023/07/31 08:45:34;;;;;;;2.80;1.30;;;20.50;99.90;;;;;;4934352;28;20751;-82
2023/07/31 08:48:00;;;;;;;3.75;1.50;;;20.50;99.90;;;;;;4925322;28;20038;-85
2023/07/31 08:50:27;;;;;;;2.85;1.50;;;20.50;99.90;;;;;;4918258;28;20230;-83
2023/07/31 08:52:54;;;;;;;3.30;1.60;;;20.50;99.90;;;;;;4937929;28;20047;-84
2023/07/31 08:55:25;;;;;;;2.53;1.40;;;20.50;99.90;;;;;;4929343;28;20501;-84
2023/07/31 08:57:53;;;;;;;2.00;1.23;;;20.50;99.90;;;;;;4927729;28;20031;-84
2023/07/31 09:00:24;;;;;;;2.80;1.63;;;20.50;99.90;;;;;;4940088;28;20505;-83
2023/07/31 09:03:02;;;;;;;2.58;1.60;;;20.50;99.90;;;;;;4929261;28;20090;-83
2023/07/31 09:05:31;;;;;;;3.70;1.70;;;20.60;99.90;;;;;;4912021;28;20149;-82
2023/07/31 09:07:57;;;;;;;3.28;1.80;;;20.60;99.90;;;;;;4926003;29;20118;-83
2023/07/31 09:10:23;;;;;;;3.30;1.93;;;20.60;99.90;;;;;;4909042;28;20815;-84
2023/07/31 09:12:51;;;;;;;3.47;1.80;;;20.60;99.90;;;;;;4926352;28;20586;-82
2023/07/31 09:15:18;;;;;;;3.42;1.70;;;20.70;99.90;;;;;;4921075;28;20246;-86
2023/07/31 09:17:44;;;;;;;3.75;1.83;;;20.70;99.90;;;;;;4927019;28;20062;-82
2023/07/31 09:20:16;;;;;;;3.60;1.70;;;19.80;99.90;;;;;;4917020;28;20039;-85
2023/07/31 09:22:43;;;;;;;3.47;1.55;;;20.70;99.90;;;;;;4934879;28;20490;-85
2023/07/31 09:25:18;;;;;;;3.47;1.70;;;20.70;99.90;;;;;;4924564;28;20070;-85
2023/07/31 09:27:51;;;;;;;3.38;1.70;;;20.80;99.90;;;;;;4924247;28;20054;-82
2023/07/31 09:30:18;;;;;;;2.83;1.73;;;19.40;99.90;;;;;;4924363;28;20221;-84
2023/07/31 09:32:45;;;;;;;5.13;1.77;;;20.80;99.90;;;;;;4926871;28;20042;-83
2023/07/31 09:35:43;;;;;;;3.03;1.75;;;20.90;99.90;;;;;;4927465;28;20097;-83
2023/07/31 09:38:14;;;;;;;3.72;1.80;;;21.00;99.90;;;;;;4901663;28;20051;-83
2023/07/31 09:40:41;;;;;;;3.25;1.55;;;21.00;99.90;;;;;;4922164;28;20039;-84
2023/07/31 09:43:12;;;;;;;2.80;1.90;;;21.10;99.90;;;;;;4929596;28;20027;-82
2023/07/31 09:45:40;;;;;;;3.00;1.60;;;21.20;99.90;;;;;;4927200;28;20027;-83
2023/07/31 09:48:11;;;;;;;2.90;1.65;;;21.20;99.90;;;;;;4918338;28;20031;-84
2023/07/31 09:50:39;;;;;;;3.67;1.92;;;21.30;99.90;;;;;;4927720;28;20082;-81
2023/07/31 09:53:05;;;;;;;3.70;1.77;;;21.30;99.90;;;;;;4912664;28;20038;-83
2023/07/31 09:55:31;;;;;;;3.53;1.70;;;21.40;99.90;;;;;;4926751;28;20047;-82
2023/07/31 09:57:58;;;;;;;3.60;1.50;;;21.40;99.90;;;;;;4935558;28;20039;-82
2023/07/31 10:00:26;;;;;;;3.60;1.65;;;21.40;99.90;;;;;;4925601;28;20292;-81
2023/07/31 10:02:53;;;;;;;3.70;1.80;;;21.40;99.90;;;;;;4934896;28;20370;-82
2023/07/31 10:05:20;;;;;;;3.92;1.60;;;21.40;99.90;;;;;;4907358;28;20052;-84
2023/07/31 10:07:57;;;;;;;2.87;1.63;;;21.40;99.90;;;;;;4921783;28;20028;-82
2023/07/31 10:10:24;;;;;;;3.08;1.70;;;21.40;99.90;;;;;;4941392;28;20093;-80
2023/07/31 10:12:52;;;;;;;2.88;1.77;;;21.40;99.90;;;;;;4934120;28;20061;-83
2023/07/31 10:15:19;;;;;;;2.92;1.90;;;21.30;99.90;;;;;;4920570;28;20356;-82
2023/07/31 10:17:47;;;;;;;2.92;1.58;;;21.40;99.90;;;;;;4915187;28;20050;-82
2023/07/31 10:20:16;;;;;;;4.07;1.90;;;21.40;99.90;;;;;;4903655;28;20166;-83
2023/07/31 10:22:42;;;;;;;3.17;1.65;;;21.30;99.90;;;;;;4922263;28;20374;-83
2023/07/31 10:25:09;;;;;;;3.33;1.70;;;21.30;99.90;;;;;;4936124;28;20090;-83
2023/07/31 10:27:42;;;;;;;3.20;1.70;;;21.30;99.90;;;;;;4924131;28;20039;-82
2023/07/31 10:30:15;;;;;;;3.97;1.83;;;21.30;99.90;;;;;;4931359;28;20121;-83
2023/07/31 10:32:42;;;;;;;3.97;2.03;;;21.30;99.90;;;;;;4920867;28;20375;-82
2023/07/31 10:35:09;;;;;;;5.15;1.98;;;21.30;99.90;;;;;;4915610;28;20152;-82
2023/07/31 10:37:41;;;;;;;2.35;1.60;;;21.70;99.90;;;;;;4900898;28;20707;-81
2023/07/31 10:40:19;;;;;;;3.33;1.80;;;21.30;99.90;;;;;;4928614;28;20030;-80
2023/07/31 10:42:47;;;;;;;4.50;1.92;;;21.30;99.90;;;;;;4916530;28;20773;-85
2023/07/31 10:45:13;;;;;;;3.80;1.90;;;21.40;99.90;;;;;;4914746;28;20097;-82
2023/07/31 10:47:45;;;;;;;3.55;1.80;;;21.40;99.90;;;;;;4910226;28;20410;-82
2023/07/31 10:50:21;;;;;;;4.95;2.05;;;21.40;99.90;;;;;;4933743;28;20126;-83
2023/07/31 10:52:57;;;;;;;3.63;2.13;;;21.40;99.90;;;;;;4898828;28;20711;-80
2023/07/31 10:55:43;;;;;;;4.82;2.10;;;21.40;99.90;;;;;;4917446;28;20063;-81
2023/07/31 10:58:11;;;;;;;3.97;1.90;;;21.40;99.90;;;;;;4923717;28;20804;-83
2023/07/31 11:00:44;;;;;;;5.05;2.05;;;21.50;99.90;;;;;;4939047;28;20532;-81
2023/07/31 11:03:16;;;;;;;4.40;2.10;;;21.50;99.90;;;;;;4913632;28;20043;-82
2023/07/31 11:06:03;;;;;;;3.15;1.80;;;21.50;99.90;;;;;;4929050;28;20355;-84
2023/07/31 11:08:33;;;;;;;4.97;2.40;;;21.00;99.90;;;;;;4886412;28;20916;-81
2023/07/31 11:11:02;;;;;;;4.73;2.17;;;21.50;99.90;;;;;;4939189;28;20035;-81
2023/07/31 11:13:42;;;;;;;4.63;2.28;;;21.60;99.90;;;;;;4913696;28;20375;-82
2023/07/31 11:16:09;;;;;;;3.53;2.30;;;21.60;99.90;;;;;;4949642;28;20089;-82
2023/07/31 11:18:36;;;;;;;5.43;2.40;;;21.60;99.90;;;;;;4912362;28;20031;-80
2023/07/31 11:21:02;;;;;;;4.80;2.13;;;21.60;99.90;;;;;;4918364;28;20023;-81
2023/07/31 11:23:28;;;;;;;4.23;1.90;;;21.60;99.90;;;;;;4901021;28;20406;-81
2023/07/31 11:26:00;;;;;;;4.63;2.15;;;21.60;99.90;;;;;;4937286;28;20031;-80
2023/07/31 11:28:26;;;;;;;4.32;2.10;;;21.60;99.90;;;;;;4932034;28;20023;-81
2023/07/31 11:30:51;;;;;;;4.13;2.00;;;21.70;99.90;;;;;;4929219;28;20026;-84
2023/07/31 11:33:17;;;;;;;5.10;2.27;;;21.70;99.90;;;;;;4907252;28;20035;-81
2023/07/31 11:35:47;;;;;;;4.20;2.70;;;21.80;99.90;;;;;;4927715;28;20308;-82
2023/07/31 11:38:28;;;;;;;4.25;2.30;;;21.80;99.90;;;;;;4923534;28;20538;-80
2023/07/31 11:40:56;;;;;;;5.53;2.75;;;21.90;99.90;;;;;;4910363;28;20027;-81
2023/07/31 11:43:23;;;;;;;3.73;2.20;;;21.90;99.90;;;;;;4913411;28;20039;-82
2023/07/31 11:45:55;;;;;;;4.68;2.58;;;22.00;99.90;;;;;;4923860;28;20030;-82
2023/07/31 11:48:24;;;;;;;4.95;2.40;;;22.00;99.90;;;;;;4918784;28;20027;-81
2023/07/31 11:51:03;;;;;;;3.80;2.20;;;22.00;99.90;;;;;;4919830;28;20434;-82
2023/07/31 11:53:32;;;;;;;4.78;2.10;;;22.00;99.90;;;;;;4921787;28;20027;-82
2023/07/31 11:56:00;;;;;;;4.60;2.00;;;22.10;99.90;;;;;;4897301;28;20035;-81
2023/07/31 11:58:26;;;;;;;4.00;2.00;;;22.10;99.90;;;;;;4931878;28;20031;-82
2023/07/31 12:00:53;;;;;;;3.58;2.08;;;22.10;99.90;;;;;;4926770;28;20026;-81
2023/07/31 12:03:19;;;;;;;4.07;2.17;;;22.20;99.90;;;;;;4925826;28;20038;-83
2023/07/31 12:05:46;;;;;;;5.63;2.70;;;22.20;99.90;;;;;;4908166;28;20051;-83
2023/07/31 12:08:12;;;;;;;4.70;2.37;;;22.80;99.90;;;;;;4905136;28;20268;-81
2023/07/31 12:10:40;;;;;;;5.22;2.75;;;22.10;99.90;;;;;;4911061;28;20937;-82
2023/07/31 12:13:13;;;;;;;5.05;2.47;;;22.20;99.90;;;;;;4908283;28;20031;-81
2023/07/31 12:15:43;;;;;;;4.55;2.35;;;22.20;99.90;;;;;;4920594;28;20035;-81
2023/07/31 12:18:11;;;;;;;4.97;2.47;;;22.30;99.90;;;;;;4925231;28;20031;-81
2023/07/31 12:20:47;;;;;;;4.50;2.57;;;22.30;99.90;;;;;;4934194;28;20118;-80
2023/07/31 12:23:28;;;;;;;4.03;2.03;;;22.40;99.90;;;;;;4898462;28;20082;-81
2023/07/31 12:26:03;;;;;;;4.15;2.00;;;22.40;99.90;;;;;;4899676;28;20028;-79
2023/07/31 12:28:28;;;;;;;4.50;2.22;;;22.50;99.90;;;;;;4925772;28;20652;-81
2023/07/31 12:31:01;;;;;;;5.10;2.67;;;22.60;99.90;;;;;;4923421;28;20118;-81
2023/07/31 12:33:38;;;;;;;4.68;2.50;;;22.70;99.90;;;;;;4922631;28;20027;-81
2023/07/31 12:36:07;;;;;;;4.50;2.30;;;22.70;99.90;;;;;;4922210;28;20078;-82
2023/07/31 12:38:33;;;;;;;5.10;2.40;;;22.70;99.90;;;;;;4932535;28;20146;-83
2023/07/31 12:40:59;;;;;;;4.00;2.20;;;22.70;99.90;;;;;;4895695;28;20113;-80
2023/07/31 12:43:25;;;;;;;4.95;2.50;;;22.80;99.90;;;;;;4906992;28;20374;-81
2023/07/31 12:45:51;;;;;;;3.47;1.97;;;22.80;99.90;;;;;;4917344;28;20035;-80
2023/07/31 12:48:17;;;;;;;5.18;2.30;;;22.80;99.90;;;;;;4926653;28;20027;-80